createdAt,value
2022-12-04T00:01:27.993Z,7.08
2022-12-04T00:04:34.431Z,7.09
2022-12-04T00:07:40.978Z,6.84
2022-12-04T00:10:47.149Z,6.74
2022-12-04T00:13:55.052Z,6.78
2022-12-04T00:17:01.190Z,6.96
2022-12-04T00:20:09.089Z,6.62
2022-12-04T00:23:15.567Z,6.84
2022-12-04T00:26:24.352Z,6.77
2022-12-04T00:29:32.051Z,6.77
2022-12-04T00:32:38.222Z,6.58
2022-12-04T00:35:44.653Z,6.65
2022-12-04T00:38:51.376Z,6.51
2022-12-04T00:41:57.306Z,6.78
2022-12-04T00:45:04.858Z,6.89
2022-12-04T00:48:11.132Z,6.79
2022-12-04T00:51:19.645Z,6.43
2022-12-04T00:54:25.711Z,6.86
2022-12-04T00:57:31.944Z,6.56
2022-12-04T01:00:40.680Z,6.65
2022-12-04T01:03:47.534Z,6.49
2022-12-04T01:06:53.718Z,6.86
2022-12-04T01:09:59.984Z,6.63
2022-12-04T01:13:06.157Z,6.57
2022-12-04T01:16:19.690Z,6.44
2022-12-04T01:19:25.971Z,6.74
2022-12-04T01:22:32.318Z,6.85
2022-12-04T01:25:38.209Z,6.96
2022-12-04T01:28:44.525Z,6.86
2022-12-04T01:31:52.231Z,6.82
2022-12-04T01:34:58.680Z,6.81
2022-12-04T01:38:04.852Z,6.99
2022-12-04T01:41:12.656Z,7.02
2022-12-04T01:44:20.544Z,6.99
2022-12-04T01:47:28.228Z,6.93
2022-12-04T01:50:34.645Z,6.87
2022-12-04T01:53:44.823Z,6.71
2022-12-04T01:56:56.212Z,6.78
2022-12-04T02:00:06.992Z,6.53
2022-12-04T02:03:16.160Z,6.78
2022-12-04T02:06:22.538Z,6.67
2022-12-04T02:09:29.499Z,6.93
2022-12-04T02:12:45.271Z,6.82
2022-12-04T02:15:57.551Z,6.80
2022-12-04T02:19:18.813Z,6.68
2022-12-04T02:22:32.602Z,6.60
2022-12-04T02:25:47.539Z,6.44
2022-12-04T02:29:21.507Z,6.77
2022-12-04T02:32:35.252Z,6.97
2022-12-04T02:35:45.876Z,6.71
2022-12-04T02:38:56.588Z,6.54
2022-12-04T02:42:10.244Z,6.50
2022-12-04T02:45:22.433Z,6.45
2022-12-04T02:48:32.126Z,6.44
2022-12-04T02:51:40.798Z,6.39
2022-12-04T02:54:52.167Z,6.60
2022-12-04T02:58:03.273Z,6.62
2022-12-04T03:01:20.578Z,6.83
2022-12-04T03:04:30.727Z,6.53
2022-12-04T03:07:44.907Z,6.42
2022-12-04T03:10:55.956Z,6.31
2022-12-04T03:14:07.521Z,6.53
2022-12-04T03:17:19.822Z,6.68
2022-12-04T03:20:27.136Z,6.82
2022-12-04T03:23:39.190Z,6.43
2022-12-04T03:26:48.888Z,6.44
2022-12-04T03:30:00.153Z,6.63
2022-12-04T03:33:13.484Z,6.83
2022-12-04T03:36:23.995Z,6.52
2022-12-04T03:39:36.199Z,6.67
2022-12-04T03:42:50.114Z,6.74
2022-12-04T03:46:01.077Z,6.83
2022-12-04T03:49:14.292Z,6.73
2022-12-04T03:52:25.488Z,6.61
2022-12-04T03:55:37.413Z,6.73
2022-12-04T03:58:49.568Z,6.77
2022-12-04T04:01:59.363Z,6.74
2022-12-04T04:05:12.531Z,6.69
2022-12-04T04:08:29.663Z,6.80
2022-12-04T04:11:41.753Z,6.75
2022-12-04T04:15:10.117Z,6.80
2022-12-04T04:18:29.871Z,6.90
2022-12-04T04:21:57.109Z,6.85
2022-12-04T04:25:07.015Z,6.75
2022-12-04T04:28:33.133Z,6.72
2022-12-04T04:31:44.232Z,6.75
2022-12-04T04:35:02.064Z,6.84
2022-12-04T04:38:17.089Z,6.83
2022-12-04T04:41:31.711Z,6.82
2022-12-04T04:44:46.980Z,6.84
2022-12-04T04:47:56.873Z,6.83
2022-12-04T04:51:05.634Z,6.79
2022-12-04T04:54:16.004Z,6.76
2022-12-04T04:57:29.855Z,6.80
2022-12-04T05:00:36.813Z,6.71
2022-12-04T05:03:43.871Z,6.76
2022-12-04T05:06:50.226Z,6.78
2022-12-04T05:09:58.066Z,6.75
2022-12-04T05:13:04.305Z,6.69
2022-12-04T05:16:13.465Z,6.50
2022-12-04T05:19:36.992Z,6.65
2022-12-04T05:22:42.981Z,6.57
2022-12-04T05:25:50.762Z,6.72
2022-12-04T05:28:56.953Z,6.80
2022-12-04T05:32:03.226Z,6.72
2022-12-04T05:35:11.513Z,6.57
2022-12-04T05:38:18.028Z,6.74
2022-12-04T05:41:25.885Z,6.70
2022-12-04T05:44:31.937Z,6.78
2022-12-04T05:47:40.359Z,6.68
2022-12-04T05:50:46.330Z,6.61
2022-12-04T05:53:53.900Z,6.64
2022-12-04T05:57:01.491Z,6.77
2022-12-04T06:00:09.173Z,6.40
2022-12-04T06:03:15.067Z,6.41
2022-12-04T06:06:23.232Z,6.69
2022-12-04T06:09:29.289Z,6.79
2022-12-04T06:12:37.055Z,6.83
2022-12-04T06:15:43.294Z,7.03
2022-12-04T06:18:51.931Z,6.81
2022-12-04T06:21:58.168Z,6.83
2022-12-04T06:25:04.630Z,7.05
2022-12-04T06:28:12.435Z,6.84
2022-12-04T06:31:20.187Z,6.69
2022-12-04T06:34:26.364Z,6.99
2022-12-04T06:37:32.731Z,7.19
2022-12-04T06:40:41.138Z,7.29
2022-12-04T06:43:50.819Z,7.35
2022-12-04T06:47:00.742Z,7.45
2022-12-04T06:50:08.484Z,7.43
2022-12-04T06:53:14.377Z,7.62
2022-12-04T06:56:23.768Z,7.63
2022-12-04T06:59:31.018Z,7.69
2022-12-04T07:02:37.810Z,7.76
2022-12-04T07:05:44.125Z,7.71
2022-12-04T07:08:53.391Z,8.61
2022-12-04T07:11:59.252Z,8.31
2022-12-04T07:15:07.721Z,8.19
2022-12-04T07:18:13.504Z,7.90
2022-12-04T07:21:21.809Z,7.94
2022-12-04T07:24:27.842Z,8.16
2022-12-04T07:27:33.855Z,8.37
2022-12-04T07:30:41.670Z,8.57
2022-12-04T07:33:48.814Z,8.24
2022-12-04T07:36:55.174Z,8.55
2022-12-04T07:40:01.412Z,8.64
2022-12-04T07:43:07.694Z,8.50
2022-12-04T07:46:17.966Z,8.82
2022-12-04T07:49:24.033Z,8.91
2022-12-04T07:52:31.225Z,8.03
2022-12-04T07:55:37.166Z,8.63
2022-12-04T07:59:02.534Z,8.66
2022-12-04T08:02:10.297Z,8.81
2022-12-04T08:05:16.746Z,9.01
2022-12-04T08:08:23.711Z,8.55
2022-12-04T08:11:30.425Z,9.08
2022-12-04T08:14:37.068Z,8.82
2022-12-04T08:17:44.650Z,9.16
2022-12-04T08:20:50.869Z,8.90
2022-12-04T08:23:58.755Z,8.96
2022-12-04T08:27:05.060Z,9.33
2022-12-04T08:30:12.140Z,9.08
2022-12-04T08:33:19.793Z,9.27
2022-12-04T08:36:26.605Z,9.93
2022-12-04T08:39:32.802Z,9.86
2022-12-04T08:42:38.848Z,9.90
2022-12-04T08:45:45.107Z,9.21
2022-12-04T08:48:53.022Z,9.69
2022-12-04T08:51:58.965Z,9.73
2022-12-04T08:55:05.313Z,9.90
2022-12-04T08:58:12.013Z,10.32
2022-12-04T09:01:20.655Z,10.73
2022-12-04T09:04:28.524Z,10.93
2022-12-04T09:07:35.077Z,11.47
2022-12-04T09:10:42.225Z,11.42
2022-12-04T09:13:48.888Z,11.18
2022-12-04T09:16:55.425Z,11.14
2022-12-04T09:20:03.873Z,10.48
2022-12-04T09:23:10.194Z,10.45
2022-12-04T09:26:24.997Z,11.48
2022-12-04T09:29:31.334Z,11.44
2022-12-04T09:32:37.910Z,10.90
2022-12-04T09:35:45.469Z,11.20
2022-12-04T09:38:54.270Z,11.55
2022-12-04T09:42:11.903Z,11.33
2022-12-04T09:45:22.021Z,10.82
2022-12-04T09:48:34.568Z,11.24
2022-12-04T09:51:43.551Z,11.59
2022-12-04T09:54:51.968Z,11.33
2022-12-04T09:58:02.586Z,11.58
2022-12-04T10:01:22.147Z,11.73
2022-12-04T10:04:28.666Z,11.77
2022-12-04T10:07:45.054Z,11.58
2022-12-04T10:11:01.261Z,11.56
2022-12-04T10:14:34.013Z,12.06
2022-12-04T10:17:52.467Z,12.53
2022-12-04T10:21:15.770Z,12.29
2022-12-04T10:24:36.172Z,12.19
2022-12-04T10:27:49.135Z,12.06
2022-12-04T10:30:58.634Z,12.15
2022-12-04T10:34:09.130Z,12.56
2022-12-04T10:37:17.042Z,12.42
2022-12-04T10:40:32.701Z,13.11
2022-12-04T10:43:44.549Z,13.15
2022-12-04T10:46:52.119Z,12.93
2022-12-04T10:50:02.329Z,12.57
2022-12-04T10:53:13.636Z,11.88
2022-12-04T10:56:24.049Z,10.91
2022-12-04T10:59:31.072Z,11.94
2022-12-04T11:02:40.562Z,11.40
2022-12-04T11:05:55.495Z,11.40
2022-12-04T11:09:03.767Z,11.40
2022-12-04T11:12:19.626Z,11.21
2022-12-04T11:15:26.585Z,11.55
2022-12-04T11:18:35.502Z,11.38
2022-12-04T11:21:41.637Z,11.04
2022-12-04T11:24:54.624Z,10.72
2022-12-04T11:28:04.636Z,10.55
2022-12-04T11:31:17.849Z,10.87
2022-12-04T11:34:30.109Z,10.98
2022-12-04T11:37:39.301Z,10.86
2022-12-04T11:40:52.292Z,10.83
2022-12-04T11:44:00.980Z,11.04
2022-12-04T11:47:17.463Z,10.89
2022-12-04T11:50:32.671Z,10.83
2022-12-04T11:53:48.728Z,11.35
2022-12-04T11:57:05.256Z,10.32
2022-12-04T12:00:17.633Z,10.57
2022-12-04T12:03:28.726Z,10.93
2022-12-04T12:06:38.046Z,10.75
2022-12-04T12:09:52.182Z,10.71
2022-12-04T12:13:07.064Z,10.93
2022-12-04T12:16:23.014Z,11.02
2022-12-04T12:19:47.767Z,10.80
2022-12-04T12:23:03.422Z,10.79
2022-12-04T12:26:13.240Z,10.55
2022-12-04T12:29:35.244Z,10.23
2022-12-04T12:32:56.700Z,10.18
2022-12-04T12:36:08.075Z,10.35
2022-12-04T12:39:19.377Z,10.39
2022-12-04T12:42:29.958Z,10.38
2022-12-04T12:45:45.934Z,10.33
2022-12-04T12:49:02.359Z,10.53
2022-12-04T12:52:17.608Z,10.35
2022-12-04T12:55:25.954Z,10.22
2022-12-04T12:58:38.980Z,10.41
2022-12-04T13:01:51.448Z,10.08
2022-12-04T13:05:05.539Z,10.05
2022-12-04T13:08:22.819Z,9.77
2022-12-04T13:11:30.731Z,10.37
2022-12-04T13:14:37.137Z,10.03
2022-12-04T13:17:45.337Z,10.13
2022-12-04T13:20:57.778Z,9.86
2022-12-04T13:24:44.171Z,10.03
2022-12-04T13:28:03.097Z,10.05
2022-12-04T13:31:21.503Z,9.80
2022-12-04T13:34:51.660Z,10.03
2022-12-04T13:38:18.311Z,10.03
2022-12-04T13:41:26.344Z,10.10
2022-12-04T13:44:34.320Z,10.01
2022-12-04T13:47:40.936Z,10.16
2022-12-04T13:50:47.427Z,9.71
2022-12-04T13:54:20.451Z,9.48
2022-12-04T13:57:28.385Z,9.90
2022-12-04T14:00:36.638Z,9.73
2022-12-04T14:03:49.535Z,9.50
2022-12-04T14:06:58.852Z,9.66
2022-12-04T14:10:10.232Z,9.84
2022-12-04T14:13:23.283Z,9.72
2022-12-04T14:16:35.480Z,9.65
2022-12-04T14:19:46.711Z,9.48
2022-12-04T14:22:53.049Z,9.20
2022-12-04T14:26:01.442Z,9.44
2022-12-04T14:29:16.852Z,9.23
2022-12-04T14:32:26.750Z,9.30
2022-12-04T14:35:34.419Z,9.11
2022-12-04T14:38:41.078Z,9.06
2022-12-04T14:41:49.120Z,9.02
2022-12-04T14:44:57.561Z,8.95
2022-12-04T14:48:18.957Z,8.94
2022-12-04T14:51:34.038Z,8.73
2022-12-04T14:54:49.648Z,8.85
2022-12-04T14:58:24.067Z,8.77
2022-12-04T15:01:37.728Z,8.78
2022-12-04T15:04:47.190Z,8.84
2022-12-04T15:07:56.130Z,8.73
2022-12-04T15:11:20.215Z,8.49
2022-12-04T15:14:27.890Z,8.58
2022-12-04T15:17:34.421Z,8.74
2022-12-04T15:20:46.323Z,8.67
2022-12-04T15:23:52.909Z,8.64
2022-12-04T15:26:59.443Z,8.58
2022-12-04T15:30:08.618Z,8.65
2022-12-04T15:33:21.831Z,8.63
2022-12-04T15:36:38.564Z,8.50
2022-12-04T15:39:45.191Z,8.47
2022-12-04T15:42:52.188Z,8.54
2022-12-04T15:46:00.564Z,8.47
2022-12-04T15:49:09.093Z,8.24
2022-12-04T15:52:17.148Z,8.47
2022-12-04T15:55:25.528Z,8.43
2022-12-04T15:58:33.268Z,8.62
2022-12-04T16:01:42.029Z,8.59
2022-12-04T16:04:48.093Z,8.47
2022-12-04T16:07:56.483Z,8.62
2022-12-04T16:11:05.062Z,8.34
2022-12-04T16:14:18.868Z,8.41
2022-12-04T16:17:31.439Z,8.48
2022-12-04T16:20:39.630Z,8.42
2022-12-04T16:23:46.336Z,8.46
2022-12-04T16:26:54.935Z,8.55
2022-12-04T16:30:00.881Z,8.44
2022-12-04T16:33:10.053Z,8.52
2022-12-04T16:36:15.936Z,8.37
2022-12-04T16:39:21.881Z,8.38
2022-12-04T16:42:29.747Z,8.44
2022-12-04T16:45:36.665Z,8.22
2022-12-04T16:48:44.644Z,8.31
2022-12-04T16:51:50.902Z,8.27
2022-12-04T16:55:00.510Z,8.42
2022-12-04T16:58:09.365Z,8.37
2022-12-04T17:01:21.882Z,8.44
2022-12-04T17:04:29.444Z,8.43
2022-12-04T17:07:35.517Z,8.26
2022-12-04T17:10:42.090Z,8.32
2022-12-04T17:13:48.072Z,8.29
2022-12-04T17:16:55.170Z,8.37
2022-12-04T17:20:02.586Z,8.30
2022-12-04T17:23:09.179Z,8.08
2022-12-04T17:26:16.591Z,8.16
2022-12-04T17:29:22.817Z,8.44
2022-12-04T17:32:31.366Z,8.27
2022-12-04T17:35:42.655Z,8.39
2022-12-04T17:38:49.352Z,8.21
2022-12-04T17:41:55.444Z,8.32
2022-12-04T17:45:01.388Z,8.20
2022-12-04T17:48:07.886Z,8.06
2022-12-04T17:51:18.278Z,8.15
2022-12-04T17:54:24.384Z,8.18
2022-12-04T17:57:30.645Z,8.05
2022-12-04T18:00:36.856Z,8.13
2022-12-04T18:03:44.506Z,8.04
2022-12-04T18:06:52.790Z,8.07
2022-12-04T18:09:59.550Z,8.07
2022-12-04T18:13:06.391Z,8.02
2022-12-04T18:16:12.920Z,7.91
2022-12-04T18:19:19.185Z,8.03
2022-12-04T18:22:27.009Z,8.02
2022-12-04T18:25:33.488Z,7.87
2022-12-04T18:28:40.049Z,7.99
2022-12-04T18:32:01.187Z,7.94
2022-12-04T18:35:08.672Z,7.88
2022-12-04T18:38:16.437Z,7.88
2022-12-04T18:41:23.223Z,7.88
2022-12-04T18:44:29.758Z,7.76
2022-12-04T18:47:36.621Z,7.87
2022-12-04T18:50:43.591Z,8.00
2022-12-04T18:53:52.485Z,7.98
2022-12-04T18:56:59.034Z,8.01
2022-12-04T19:00:06.647Z,7.71
2022-12-04T19:03:13.218Z,7.85
2022-12-04T19:06:19.669Z,7.92
2022-12-04T19:10:09.573Z,7.79
2022-12-04T19:12:56.644Z,7.82
2022-12-04T19:16:02.973Z,7.86
2022-12-04T19:19:09.488Z,7.87
2022-12-04T19:22:15.982Z,7.83
2022-12-04T19:25:23.661Z,7.82
2022-12-04T19:28:30.926Z,7.81
2022-12-04T19:31:38.547Z,7.86
2022-12-04T19:34:45.208Z,7.80
2022-12-04T19:37:53.238Z,7.73
2022-12-04T19:41:10.590Z,7.77
2022-12-04T19:44:47.325Z,7.77
2022-12-04T19:47:43.249Z,7.65
2022-12-04T19:50:49.997Z,7.76
2022-12-04T19:53:56.754Z,7.79
2022-12-04T19:57:04.243Z,7.69
2022-12-04T20:00:11.477Z,7.70
2022-12-04T20:03:17.787Z,7.92
2022-12-04T20:06:27.688Z,7.86
2022-12-04T20:09:33.780Z,7.56
2022-12-04T20:12:41.452Z,7.76
2022-12-04T20:15:47.524Z,7.61
2022-12-04T20:18:54.293Z,7.70
2022-12-04T20:22:00.304Z,7.71
2022-12-04T20:25:06.970Z,7.57
2022-12-04T20:28:14.770Z,7.03
2022-12-04T20:31:23.386Z,6.92
2022-12-04T20:34:29.982Z,6.94
2022-12-04T20:37:36.385Z,7.07
2022-12-04T20:40:42.726Z,7.52
2022-12-04T20:43:50.340Z,7.55
2022-12-04T20:46:56.415Z,7.51
2022-12-04T20:50:02.558Z,7.53
2022-12-04T20:53:08.694Z,7.59
2022-12-04T20:56:15.573Z,7.18
2022-12-04T20:59:25.249Z,7.29
2022-12-04T21:02:31.808Z,7.41
2022-12-04T21:05:38.226Z,7.59
2022-12-04T21:08:57.203Z,7.61
2022-12-04T21:12:03.605Z,7.50
2022-12-04T21:15:29.324Z,7.62
2022-12-04T21:18:37.703Z,7.58
2022-12-04T21:21:44.577Z,7.67
2022-12-04T21:24:50.653Z,7.78
2022-12-04T21:27:56.940Z,7.74
2022-12-04T21:31:04.976Z,7.78
2022-12-04T21:34:13.262Z,7.66
2022-12-04T21:37:19.848Z,7.57
2022-12-04T21:40:26.122Z,7.57
2022-12-04T21:43:33.414Z,7.69
2022-12-04T21:46:41.574Z,7.63
2022-12-04T21:49:47.839Z,7.49
2022-12-04T21:52:55.830Z,7.66
2022-12-04T21:56:01.599Z,7.63
2022-12-04T21:59:08.063Z,7.73
2022-12-04T22:02:16.890Z,7.75
2022-12-04T22:05:22.998Z,7.53
2022-12-04T22:08:29.217Z,7.37
2022-12-04T22:11:35.621Z,7.53
2022-12-04T22:14:41.967Z,7.63
2022-12-04T22:17:49.845Z,7.47
2022-12-04T22:20:56.042Z,7.39
2022-12-04T22:24:03.604Z,7.68
2022-12-04T22:27:14.966Z,7.65
2022-12-04T22:30:21.300Z,7.76
2022-12-04T22:33:29.043Z,7.67
2022-12-04T22:36:35.389Z,7.56
2022-12-04T22:39:41.585Z,7.66
2022-12-04T22:42:47.726Z,7.73
2022-12-04T22:45:54.279Z,7.37
2022-12-04T22:49:02.720Z,7.47
2022-12-04T22:52:09.070Z,7.66
2022-12-04T22:55:15.461Z,7.78
2022-12-04T22:58:21.640Z,7.81
2022-12-04T23:01:30.278Z,7.54
2022-12-04T23:04:37.835Z,7.48
2022-12-04T23:07:44.139Z,7.70
2022-12-04T23:10:50.154Z,7.66
2022-12-04T23:13:57.657Z,7.74
2022-12-04T23:17:03.942Z,7.66
2022-12-04T23:20:12.244Z,7.81
2022-12-04T23:23:18.730Z,7.74
2022-12-04T23:26:26.420Z,7.66
2022-12-04T23:32:58.403Z,7.57
2022-12-04T23:36:07.928Z,7.57
2022-12-04T23:39:13.900Z,7.23
2022-12-04T23:42:19.861Z,7.34
2022-12-04T23:45:26.118Z,7.51
2022-12-04T23:48:32.484Z,7.61
2022-12-04T23:51:40.023Z,7.43
2022-12-04T23:54:45.952Z,7.53
2022-12-04T23:57:53.056Z,7.58
